sensor_id;sensor_type;location;lat;lon;timestamp;P1;durP1;ratioP1;P2;durP2;ratioP2
80272;SDS011;69574;45.328;9.598;2023-08-21T00:01:05;26.20;;;23.40;;
80272;SDS011;69574;45.328;9.598;2023-08-21T00:03:31;26.60;;;23.90;;
80272;SDS011;69574;45.328;9.598;2023-08-21T00:05:56;29.35;;;25.92;;
80272;SDS011;69574;45.328;9.598;2023-08-21T00:08:23;27.75;;;24.95;;
80272;SDS011;69574;45.328;9.598;2023-08-21T00:10:50;32.88;;;28.75;;
80272;SDS011;69574;45.328;9.598;2023-08-21T00:13:16;32.75;;;29.35;;
80272;SDS011;69574;45.328;9.598;2023-08-21T00:15:41;31.05;;;27.75;;
80272;SDS011;69574;45.328;9.598;2023-08-21T00:18:07;32.97;;;29.67;;
80272;SDS011;69574;45.328;9.598;2023-08-21T00:20:33;33.40;;;29.92;;
80272;SDS011;69574;45.328;9.598;2023-08-21T00:22:58;35.22;;;31.52;;
80272;SDS011;69574;45.328;9.598;2023-08-21T00:25:24;33.47;;;29.92;;
80272;SDS011;69574;45.328;9.598;2023-08-21T00:27:51;36.90;;;31.58;;
80272;SDS011;69574;45.328;9.598;2023-08-21T00:30:17;33.88;;;30.40;;
80272;SDS011;69574;45.328;9.598;2023-08-21T00:32:42;35.72;;;31.67;;
80272;SDS011;69574;45.328;9.598;2023-08-21T00:35:08;37.80;;;33.35;;
80272;SDS011;69574;45.328;9.598;2023-08-21T00:37:34;38.30;;;33.90;;
80272;SDS011;69574;45.328;9.598;2023-08-21T00:39:59;38.17;;;33.95;;
80272;SDS011;69574;45.328;9.598;2023-08-21T00:42:25;37.20;;;32.72;;
80272;SDS011;69574;45.328;9.598;2023-08-21T00:44:52;37.03;;;33.00;;
80272;SDS011;69574;45.328;9.598;2023-08-21T00:47:18;37.45;;;32.78;;
80272;SDS011;69574;45.328;9.598;2023-08-21T00:49:44;35.97;;;32.17;;
80272;SDS011;69574;45.328;9.598;2023-08-21T00:52:10;39.53;;;35.22;;
80272;SDS011;69574;45.328;9.598;2023-08-21T00:54:36;37.97;;;33.97;;
80272;SDS011;69574;45.328;9.598;2023-08-21T00:57:02;38.55;;;34.42;;
80272;SDS011;69574;45.328;9.598;2023-08-21T00:59:28;39.55;;;35.30;;
80272;SDS011;69574;45.328;9.598;2023-08-21T01:01:56;37.22;;;33.30;;
80272;SDS011;69574;45.328;9.598;2023-08-21T01:04:21;38.83;;;34.70;;
80272;SDS011;69574;45.328;9.598;2023-08-21T01:06:48;41.50;;;35.92;;
80272;SDS011;69574;45.328;9.598;2023-08-21T01:09:16;42.45;;;35.15;;
80272;SDS011;69574;45.328;9.598;2023-08-21T01:11:45;39.85;;;34.95;;
80272;SDS011;69574;45.328;9.598;2023-08-21T01:14:14;40.72;;;36.15;;
80272;SDS011;69574;45.328;9.598;2023-08-21T01:16:42;43.50;;;38.75;;
80272;SDS011;69574;45.328;9.598;2023-08-21T01:19:14;41.58;;;37.05;;
80272;SDS011;69574;45.328;9.598;2023-08-21T01:21:44;40.47;;;35.97;;
80272;SDS011;69574;45.328;9.598;2023-08-21T01:24:11;44.38;;;39.72;;
80272;SDS011;69574;45.328;9.598;2023-08-21T01:26:37;43.72;;;38.55;;
80272;SDS011;69574;45.328;9.598;2023-08-21T01:29:02;41.95;;;37.28;;
80272;SDS011;69574;45.328;9.598;2023-08-21T01:31:31;44.50;;;39.70;;
80272;SDS011;69574;45.328;9.598;2023-08-21T01:33:59;45.38;;;40.17;;
80272;SDS011;69574;45.328;9.598;2023-08-21T01:36:27;44.22;;;39.10;;
80272;SDS011;69574;45.328;9.598;2023-08-21T01:38:53;45.20;;;40.25;;
80272;SDS011;69574;45.328;9.598;2023-08-21T01:41:20;45.50;;;39.47;;
80272;SDS011;69574;45.328;9.598;2023-08-21T01:43:48;44.88;;;40.28;;
80272;SDS011;69574;45.328;9.598;2023-08-21T01:46:14;46.28;;;41.35;;
80272;SDS011;69574;45.328;9.598;2023-08-21T01:48:39;44.90;;;40.08;;
80272;SDS011;69574;45.328;9.598;2023-08-21T01:51:05;42.90;;;38.33;;
80272;SDS011;69574;45.328;9.598;2023-08-21T01:53:30;45.20;;;38.40;;
80272;SDS011;69574;45.328;9.598;2023-08-21T01:55:56;42.58;;;37.45;;
80272;SDS011;69574;45.328;9.598;2023-08-21T01:58:23;41.20;;;36.72;;
80272;SDS011;69574;45.328;9.598;2023-08-21T02:00:49;38.90;;;34.60;;
80272;SDS011;69574;45.328;9.598;2023-08-21T02:03:15;40.85;;;34.47;;
80272;SDS011;69574;45.328;9.598;2023-08-21T02:05:40;39.33;;;35.20;;
80272;SDS011;69574;45.328;9.598;2023-08-21T02:08:06;37.45;;;33.35;;
80272;SDS011;69574;45.328;9.598;2023-08-21T02:10:32;38.97;;;34.35;;
80272;SDS011;69574;45.328;9.598;2023-08-21T02:12:58;39.25;;;34.15;;
80272;SDS011;69574;45.328;9.598;2023-08-21T02:15:25;37.03;;;33.08;;
80272;SDS011;69574;45.328;9.598;2023-08-21T02:17:50;34.22;;;30.55;;
80272;SDS011;69574;45.328;9.598;2023-08-21T02:20:16;37.15;;;33.25;;
80272;SDS011;69574;45.328;9.598;2023-08-21T02:22:42;36.08;;;32.42;;
80272;SDS011;69574;45.328;9.598;2023-08-21T02:25:07;33.65;;;30.15;;
80272;SDS011;69574;45.328;9.598;2023-08-21T02:27:33;33.17;;;29.65;;
80272;SDS011;69574;45.328;9.598;2023-08-21T02:29:59;32.88;;;28.90;;
80272;SDS011;69574;45.328;9.598;2023-08-21T02:32:26;33.08;;;28.80;;
80272;SDS011;69574;45.328;9.598;2023-08-21T02:34:51;32.97;;;29.15;;
80272;SDS011;69574;45.328;9.598;2023-08-21T02:37:17;31.52;;;28.13;;
80272;SDS011;69574;45.328;9.598;2023-08-21T02:39:43;33.35;;;29.92;;
80272;SDS011;69574;45.328;9.598;2023-08-21T02:42:08;33.40;;;29.80;;
80272;SDS011;69574;45.328;9.598;2023-08-21T02:44:34;32.78;;;29.10;;
80272;SDS011;69574;45.328;9.598;2023-08-21T02:46:59;31.83;;;28.48;;
80272;SDS011;69574;45.328;9.598;2023-08-21T02:49:27;31.95;;;28.85;;
80272;SDS011;69574;45.328;9.598;2023-08-21T02:51:52;32.13;;;28.48;;
80272;SDS011;69574;45.328;9.598;2023-08-21T02:54:18;31.38;;;28.15;;
80272;SDS011;69574;45.328;9.598;2023-08-21T02:56:43;31.05;;;27.95;;
80272;SDS011;69574;45.328;9.598;2023-08-21T02:59:09;31.67;;;28.33;;
80272;SDS011;69574;45.328;9.598;2023-08-21T03:01:35;31.10;;;27.80;;
80272;SDS011;69574;45.328;9.598;2023-08-21T03:04:00;30.85;;;27.58;;
80272;SDS011;69574;45.328;9.598;2023-08-21T03:06:27;30.90;;;27.80;;
80272;SDS011;69574;45.328;9.598;2023-08-21T03:08:53;32.80;;;29.30;;
80272;SDS011;69574;45.328;9.598;2023-08-21T03:11:19;32.08;;;28.77;;
80272;SDS011;69574;45.328;9.598;2023-08-21T03:13:44;32.60;;;28.52;;
80272;SDS011;69574;45.328;9.598;2023-08-21T03:16:10;32.50;;;29.20;;
80272;SDS011;69574;45.328;9.598;2023-08-21T03:18:45;30.60;;;27.27;;
80272;SDS011;69574;45.328;9.598;2023-08-21T03:21:18;30.70;;;27.50;;
80272;SDS011;69574;45.328;9.598;2023-08-21T03:23:45;31.80;;;28.55;;
80272;SDS011;69574;45.328;9.598;2023-08-21T03:26:11;32.63;;;28.83;;
80272;SDS011;69574;45.328;9.598;2023-08-21T03:28:36;30.73;;;27.48;;
80272;SDS011;69574;45.328;9.598;2023-08-21T03:31:02;31.88;;;28.65;;
80272;SDS011;69574;45.328;9.598;2023-08-21T03:33:28;32.03;;;28.77;;
80272;SDS011;69574;45.328;9.598;2023-08-21T03:35:53;32.88;;;28.05;;
80272;SDS011;69574;45.328;9.598;2023-08-21T03:38:20;32.70;;;29.30;;
80272;SDS011;69574;45.328;9.598;2023-08-21T03:40:47;31.67;;;28.38;;
80272;SDS011;69574;45.328;9.598;2023-08-21T03:43:13;30.67;;;27.50;;
80272;SDS011;69574;45.328;9.598;2023-08-21T03:45:38;33.10;;;29.60;;
80272;SDS011;69574;45.328;9.598;2023-08-21T03:48:04;32.42;;;28.73;;
80272;SDS011;69574;45.328;9.598;2023-08-21T03:50:30;33.25;;;29.83;;
80272;SDS011;69574;45.328;9.598;2023-08-21T03:52:55;32.50;;;28.98;;
80272;SDS011;69574;45.328;9.598;2023-08-21T03:55:21;31.50;;;28.20;;
80272;SDS011;69574;45.328;9.598;2023-08-21T03:57:48;30.13;;;26.65;;
80272;SDS011;69574;45.328;9.598;2023-08-21T04:00:14;30.50;;;27.33;;
80272;SDS011;69574;45.328;9.598;2023-08-21T04:02:40;27.90;;;24.40;;
80272;SDS011;69574;45.328;9.598;2023-08-21T04:05:06;28.42;;;25.52;;
80272;SDS011;69574;45.328;9.598;2023-08-21T04:07:32;28.33;;;25.27;;
80272;SDS011;69574;45.328;9.598;2023-08-21T04:09:57;29.15;;;26.05;;
80272;SDS011;69574;45.328;9.598;2023-08-21T04:12:23;29.38;;;26.27;;
80272;SDS011;69574;45.328;9.598;2023-08-21T04:14:50;33.38;;;27.95;;
80272;SDS011;69574;45.328;9.598;2023-08-21T04:17:19;33.45;;;29.77;;
80272;SDS011;69574;45.328;9.598;2023-08-21T04:19:45;36.17;;;30.95;;
80272;SDS011;69574;45.328;9.598;2023-08-21T04:22:11;37.97;;;31.95;;
80272;SDS011;69574;45.328;9.598;2023-08-21T04:24:36;37.10;;;31.85;;
80272;SDS011;69574;45.328;9.598;2023-08-21T04:27:02;33.50;;;29.73;;
80272;SDS011;69574;45.328;9.598;2023-08-21T04:29:27;33.95;;;30.55;;
80272;SDS011;69574;45.328;9.598;2023-08-21T04:31:55;35.63;;;30.70;;
80272;SDS011;69574;45.328;9.598;2023-08-21T04:34:20;36.45;;;32.47;;
80272;SDS011;69574;45.328;9.598;2023-08-21T04:36:46;35.60;;;30.27;;
80272;SDS011;69574;45.328;9.598;2023-08-21T04:39:12;38.55;;;31.15;;
80272;SDS011;69574;45.328;9.598;2023-08-21T04:41:39;37.38;;;30.70;;
80272;SDS011;69574;45.328;9.598;2023-08-21T04:44:04;32.97;;;28.27;;
80272;SDS011;69574;45.328;9.598;2023-08-21T04:46:30;38.40;;;29.25;;
80272;SDS011;69574;45.328;9.598;2023-08-21T04:48:57;35.63;;;27.27;;
80272;SDS011;69574;45.328;9.598;2023-08-21T04:51:23;32.13;;;25.98;;
80272;SDS011;69574;45.328;9.598;2023-08-21T04:53:48;31.02;;;27.48;;
80272;SDS011;69574;45.328;9.598;2023-08-21T04:56:14;30.05;;;25.95;;
80272;SDS011;69574;45.328;9.598;2023-08-21T04:58:40;31.30;;;26.17;;
80272;SDS011;69574;45.328;9.598;2023-08-21T05:01:05;35.55;;;27.35;;
80272;SDS011;69574;45.328;9.598;2023-08-21T05:03:31;34.60;;;27.08;;
80272;SDS011;69574;45.328;9.598;2023-08-21T05:05:58;32.08;;;26.80;;
80272;SDS011;69574;45.328;9.598;2023-08-21T05:08:24;41.15;;;28.95;;
80272;SDS011;69574;45.328;9.598;2023-08-21T05:10:54;37.72;;;30.52;;
80272;SDS011;69574;45.328;9.598;2023-08-21T05:13:19;42.22;;;30.40;;
80272;SDS011;69574;45.328;9.598;2023-08-21T05:15:49;35.38;;;29.63;;
80272;SDS011;69574;45.328;9.598;2023-08-21T05:18:16;82.38;;;33.92;;
80272;SDS011;69574;45.328;9.598;2023-08-21T05:20:41;101.68;;;35.75;;
80272;SDS011;69574;45.328;9.598;2023-08-21T05:23:08;93.15;;;34.78;;
80272;SDS011;69574;45.328;9.598;2023-08-21T05:25:34;76.10;;;34.10;;
80272;SDS011;69574;45.328;9.598;2023-08-21T05:28:00;96.45;;;36.47;;
80272;SDS011;69574;45.328;9.598;2023-08-21T05:30:25;79.50;;;34.70;;
80272;SDS011;69574;45.328;9.598;2023-08-21T05:32:51;71.55;;;35.75;;
80272;SDS011;69574;45.328;9.598;2023-08-21T05:35:16;63.58;;;37.08;;
80272;SDS011;69574;45.328;9.598;2023-08-21T05:37:42;54.60;;;35.20;;
80272;SDS011;69574;45.328;9.598;2023-08-21T05:40:10;148.05;;;41.22;;
80272;SDS011;69574;45.328;9.598;2023-08-21T05:42:35;94.53;;;41.80;;
80272;SDS011;69574;45.328;9.598;2023-08-21T05:45:01;120.45;;;40.65;;
80272;SDS011;69574;45.328;9.598;2023-08-21T05:47:26;72.70;;;38.53;;
80272;SDS011;69574;45.328;9.598;2023-08-21T05:49:52;85.35;;;39.50;;
80272;SDS011;69574;45.328;9.598;2023-08-21T05:52:18;257.48;;;54.03;;
80272;SDS011;69574;45.328;9.598;2023-08-21T05:54:44;253.60;;;55.38;;
80272;SDS011;69574;45.328;9.598;2023-08-21T05:57:11;220.98;;;50.47;;
80272;SDS011;69574;45.328;9.598;2023-08-21T05:59:42;136.25;;;46.22;;
80272;SDS011;69574;45.328;9.598;2023-08-21T06:02:08;103.05;;;42.25;;
80272;SDS011;69574;45.328;9.598;2023-08-21T06:04:33;78.13;;;39.63;;
80272;SDS011;69574;45.328;9.598;2023-08-21T06:06:59;67.00;;;39.28;;
80272;SDS011;69574;45.328;9.598;2023-08-21T06:09:24;51.42;;;38.88;;
80272;SDS011;69574;45.328;9.598;2023-08-21T06:11:50;65.53;;;39.65;;
80272;SDS011;69574;45.328;9.598;2023-08-21T06:14:17;49.47;;;37.88;;
80272;SDS011;69574;45.328;9.598;2023-08-21T06:16:43;46.45;;;36.00;;
80272;SDS011;69574;45.328;9.598;2023-08-21T06:19:10;43.58;;;37.80;;
80272;SDS011;69574;45.328;9.598;2023-08-21T06:21:35;41.15;;;36.47;;
80272;SDS011;69574;45.328;9.598;2023-08-21T06:24:01;43.53;;;37.38;;
80272;SDS011;69574;45.328;9.598;2023-08-21T06:26:27;44.50;;;39.67;;
80272;SDS011;69574;45.328;9.598;2023-08-21T06:28:53;42.83;;;37.35;;
80272;SDS011;69574;45.328;9.598;2023-08-21T06:31:20;42.00;;;36.70;;
80272;SDS011;69574;45.328;9.598;2023-08-21T06:33:45;40.22;;;35.80;;
80272;SDS011;69574;45.328;9.598;2023-08-21T06:36:11;40.08;;;35.78;;
80272;SDS011;69574;45.328;9.598;2023-08-21T06:38:36;39.42;;;35.28;;
80272;SDS011;69574;45.328;9.598;2023-08-21T06:41:02;40.35;;;35.95;;
80272;SDS011;69574;45.328;9.598;2023-08-21T06:43:28;38.05;;;34.10;;
80272;SDS011;69574;45.328;9.598;2023-08-21T06:45:53;36.45;;;32.00;;
80272;SDS011;69574;45.328;9.598;2023-08-21T06:48:20;36.88;;;32.38;;
80272;SDS011;69574;45.328;9.598;2023-08-21T06:50:46;41.55;;;33.67;;
80272;SDS011;69574;45.328;9.598;2023-08-21T06:53:11;35.35;;;31.77;;
80272;SDS011;69574;45.328;9.598;2023-08-21T06:55:37;42.35;;;32.03;;
80272;SDS011;69574;45.328;9.598;2023-08-21T06:58:03;40.10;;;32.15;;
80272;SDS011;69574;45.328;9.598;2023-08-21T07:00:28;39.70;;;32.80;;
80272;SDS011;69574;45.328;9.598;2023-08-21T07:02:54;37.28;;;31.33;;
80272;SDS011;69574;45.328;9.598;2023-08-21T07:05:21;34.30;;;30.67;;
80272;SDS011;69574;45.328;9.598;2023-08-21T07:07:47;35.38;;;31.30;;
80272;SDS011;69574;45.328;9.598;2023-08-21T07:10:13;34.03;;;30.40;;
80272;SDS011;69574;45.328;9.598;2023-08-21T07:12:39;37.33;;;32.10;;
80272;SDS011;69574;45.328;9.598;2023-08-21T07:15:05;34.80;;;29.83;;
80272;SDS011;69574;45.328;9.598;2023-08-21T07:17:31;35.20;;;30.52;;
80272;SDS011;69574;45.328;9.598;2023-08-21T13:51:07;11.13;;;9.30;;
80272;SDS011;69574;45.328;9.598;2023-08-21T15:51:50;16.17;;;9.93;;
80272;SDS011;69574;45.328;9.598;2023-08-21T17:53:38;14.40;;;9.80;;
80272;SDS011;69574;45.328;9.598;2023-08-21T17:56:12;16.98;;;10.38;;
80272;SDS011;69574;45.328;9.598;2023-08-21T17:58:41;21.95;;;10.05;;
80272;SDS011;69574;45.328;9.598;2023-08-21T18:01:27;18.33;;;10.05;;
80272;SDS011;69574;45.328;9.598;2023-08-21T18:07:03;13.82;;;9.80;;
80272;SDS011;69574;45.328;9.598;2023-08-21T18:36:51;15.13;;;11.25;;
80272;SDS011;69574;45.328;9.598;2023-08-21T18:39:17;17.85;;;11.98;;
80272;SDS011;69574;45.328;9.598;2023-08-21T18:41:43;13.90;;;11.18;;
80272;SDS011;69574;45.328;9.598;2023-08-21T18:46:35;16.30;;;11.15;;
80272;SDS011;69574;45.328;9.598;2023-08-21T18:51:26;22.23;;;11.07;;
80272;SDS011;69574;45.328;9.598;2023-08-21T18:56:18;14.73;;;9.93;;
80272;SDS011;69574;45.328;9.598;2023-08-21T18:58:44;17.08;;;10.80;;
80272;SDS011;69574;45.328;9.598;2023-08-21T19:03:35;17.25;;;11.27;;
80272;SDS011;69574;45.328;9.598;2023-08-21T19:06:02;19.95;;;12.57;;
80272;SDS011;69574;45.328;9.598;2023-08-21T19:10:53;16.87;;;12.07;;
80272;SDS011;69574;45.328;9.598;2023-08-21T19:15:45;17.43;;;12.50;;
80272;SDS011;69574;45.328;9.598;2023-08-21T19:18:11;19.13;;;11.75;;
80272;SDS011;69574;45.328;9.598;2023-08-21T19:23:03;17.98;;;11.95;;
80272;SDS011;69574;45.328;9.598;2023-08-21T19:25:30;22.38;;;12.98;;
80272;SDS011;69574;45.328;9.598;2023-08-21T19:27:56;17.15;;;12.45;;
80272;SDS011;69574;45.328;9.598;2023-08-21T19:30:23;19.13;;;12.23;;
80272;SDS011;69574;45.328;9.598;2023-08-21T19:32:51;19.92;;;14.13;;
80272;SDS011;69574;45.328;9.598;2023-08-21T19:35:18;18.40;;;13.93;;
80272;SDS011;69574;45.328;9.598;2023-08-21T19:40:09;21.60;;;16.70;;
80272;SDS011;69574;45.328;9.598;2023-08-21T19:42:34;22.00;;;16.80;;
80272;SDS011;69574;45.328;9.598;2023-08-21T19:45:00;20.17;;;16.23;;
80272;SDS011;69574;45.328;9.598;2023-08-21T19:47:26;23.95;;;17.48;;
80272;SDS011;69574;45.328;9.598;2023-08-21T19:49:56;21.20;;;17.83;;
80272;SDS011;69574;45.328;9.598;2023-08-21T19:52:22;22.23;;;19.52;;
80272;SDS011;69574;45.328;9.598;2023-08-21T19:54:48;26.08;;;19.50;;
80272;SDS011;69574;45.328;9.598;2023-08-21T19:57:16;22.95;;;19.65;;
80272;SDS011;69574;45.328;9.598;2023-08-21T19:59:42;24.80;;;19.48;;
80272;SDS011;69574;45.328;9.598;2023-08-21T20:02:08;21.83;;;19.52;;
80272;SDS011;69574;45.328;9.598;2023-08-21T20:04:35;23.20;;;20.13;;
80272;SDS011;69574;45.328;9.598;2023-08-21T20:07:02;24.15;;;20.20;;
80272;SDS011;69574;45.328;9.598;2023-08-21T20:09:29;22.50;;;19.88;;
80272;SDS011;69574;45.328;9.598;2023-08-21T20:14:22;21.42;;;19.15;;
80272;SDS011;69574;45.328;9.598;2023-08-21T20:16:49;26.08;;;20.80;;
80272;SDS011;69574;45.328;9.598;2023-08-21T20:19:16;23.25;;;20.35;;
80272;SDS011;69574;45.328;9.598;2023-08-21T20:21:42;23.70;;;19.63;;
80272;SDS011;69574;45.328;9.598;2023-08-21T20:26:35;23.42;;;20.90;;
80272;SDS011;69574;45.328;9.598;2023-08-21T20:29:01;24.02;;;20.23;;
80272;SDS011;69574;45.328;9.598;2023-08-21T20:33:52;20.42;;;18.25;;
80272;SDS011;69574;45.328;9.598;2023-08-21T20:36:18;23.02;;;20.52;;
80272;SDS011;69574;45.328;9.598;2023-08-21T20:38:44;31.73;;;24.48;;
80272;SDS011;69574;45.328;9.598;2023-08-21T20:41:11;27.52;;;24.50;;
80272;SDS011;69574;45.328;9.598;2023-08-21T20:43:39;26.17;;;23.45;;
80272;SDS011;69574;45.328;9.598;2023-08-21T20:46:07;29.35;;;26.10;;
80272;SDS011;69574;45.328;9.598;2023-08-21T20:48:33;46.70;;;25.52;;
80272;SDS011;69574;45.328;9.598;2023-08-21T20:53:24;28.60;;;23.23;;
80272;SDS011;69574;45.328;9.598;2023-08-21T20:55:50;26.35;;;23.50;;
80272;SDS011;69574;45.328;9.598;2023-08-21T20:58:16;24.75;;;22.15;;
80272;SDS011;69574;45.328;9.598;2023-08-21T21:00:45;27.23;;;22.52;;
80272;SDS011;69574;45.328;9.598;2023-08-21T21:03:11;26.85;;;22.85;;
80272;SDS011;69574;45.328;9.598;2023-08-21T21:05:37;24.95;;;22.30;;
80272;SDS011;69574;45.328;9.598;2023-08-21T21:08:03;28.27;;;23.20;;
80272;SDS011;69574;45.328;9.598;2023-08-21T21:10:29;26.85;;;23.05;;
80272;SDS011;69574;45.328;9.598;2023-08-21T21:12:54;26.25;;;23.52;;
80272;SDS011;69574;45.328;9.598;2023-08-21T21:15:20;25.40;;;22.70;;
80272;SDS011;69574;45.328;9.598;2023-08-21T21:17:47;27.52;;;23.75;;
80272;SDS011;69574;45.328;9.598;2023-08-21T21:20:13;26.95;;;23.88;;
80272;SDS011;69574;45.328;9.598;2023-08-21T21:22:39;27.40;;;24.50;;
80272;SDS011;69574;45.328;9.598;2023-08-21T21:25:04;27.38;;;22.95;;
80272;SDS011;69574;45.328;9.598;2023-08-21T21:27:30;29.92;;;23.38;;
80272;SDS011;69574;45.328;9.598;2023-08-21T21:29:56;27.83;;;24.63;;
80272;SDS011;69574;45.328;9.598;2023-08-21T21:32:21;28.80;;;25.42;;
80272;SDS011;69574;45.328;9.598;2023-08-21T21:34:49;31.48;;;26.48;;
80272;SDS011;69574;45.328;9.598;2023-08-21T21:37:14;28.23;;;25.13;;
80272;SDS011;69574;45.328;9.598;2023-08-21T21:39:40;34.25;;;28.73;;
80272;SDS011;69574;45.328;9.598;2023-08-21T21:42:06;29.80;;;25.83;;
80272;SDS011;69574;45.328;9.598;2023-08-21T21:44:34;28.88;;;25.50;;
80272;SDS011;69574;45.328;9.598;2023-08-21T21:47:00;28.70;;;23.88;;
80272;SDS011;69574;45.328;9.598;2023-08-21T21:49:26;175.68;;;36.10;;
80272;SDS011;69574;45.328;9.598;2023-08-21T21:51:53;90.97;;;29.33;;
80272;SDS011;69574;45.328;9.598;2023-08-21T21:54:18;94.53;;;28.02;;
80272;SDS011;69574;45.328;9.598;2023-08-21T21:56:44;63.42;;;25.73;;
80272;SDS011;69574;45.328;9.598;2023-08-21T21:59:10;61.63;;;26.98;;
80272;SDS011;69574;45.328;9.598;2023-08-21T22:01:36;40.55;;;25.48;;
80272;SDS011;69574;45.328;9.598;2023-08-21T22:04:02;34.85;;;26.08;;
80272;SDS011;69574;45.328;9.598;2023-08-21T22:06:28;33.63;;;27.20;;
80272;SDS011;69574;45.328;9.598;2023-08-21T22:08:55;551.85;;;77.97;;
80272;SDS011;69574;45.328;9.598;2023-08-21T22:11:21;150.25;;;40.20;;
80272;SDS011;69574;45.328;9.598;2023-08-21T22:13:47;310.63;;;52.13;;
80272;SDS011;69574;45.328;9.598;2023-08-21T22:16:13;226.13;;;44.97;;
80272;SDS011;69574;45.328;9.598;2023-08-21T22:18:40;118.57;;;35.72;;
80272;SDS011;69574;45.328;9.598;2023-08-21T22:21:06;65.72;;;29.08;;
80272;SDS011;69574;45.328;9.598;2023-08-21T22:23:32;47.40;;;30.13;;
80272;SDS011;69574;45.328;9.598;2023-08-21T22:26:00;40.97;;;30.25;;
80272;SDS011;69574;45.328;9.598;2023-08-21T22:28:25;40.20;;;30.98;;
80272;SDS011;69574;45.328;9.598;2023-08-21T22:30:51;36.88;;;30.02;;
80272;SDS011;69574;45.328;9.598;2023-08-21T22:33:17;36.42;;;30.77;;
80272;SDS011;69574;45.328;9.598;2023-08-21T22:35:42;38.33;;;30.85;;
80272;SDS011;69574;45.328;9.598;2023-08-21T22:38:08;38.70;;;31.10;;
80272;SDS011;69574;45.328;9.598;2023-08-21T22:40:34;37.45;;;30.63;;
80272;SDS011;69574;45.328;9.598;2023-08-21T22:43:01;37.92;;;31.45;;
80272;SDS011;69574;45.328;9.598;2023-08-21T22:45:27;37.00;;;30.73;;
80272;SDS011;69574;45.328;9.598;2023-08-21T22:47:52;39.03;;;32.45;;
80272;SDS011;69574;45.328;9.598;2023-08-21T22:50:19;38.78;;;32.75;;
80272;SDS011;69574;45.328;9.598;2023-08-21T22:52:44;36.17;;;32.03;;
80272;SDS011;69574;45.328;9.598;2023-08-21T22:55:10;41.78;;;34.20;;
80272;SDS011;69574;45.328;9.598;2023-08-21T22:57:36;41.50;;;33.80;;
80272;SDS011;69574;45.328;9.598;2023-08-21T23:00:03;38.53;;;33.95;;
80272;SDS011;69574;45.328;9.598;2023-08-21T23:02:33;39.65;;;34.30;;
80272;SDS011;69574;45.328;9.598;2023-08-21T23:04:59;37.78;;;33.70;;
80272;SDS011;69574;45.328;9.598;2023-08-21T23:07:24;36.60;;;32.67;;
80272;SDS011;69574;45.328;9.598;2023-08-21T23:09:50;38.50;;;33.28;;
80272;SDS011;69574;45.328;9.598;2023-08-21T23:12:16;39.97;;;33.20;;
80272;SDS011;69574;45.328;9.598;2023-08-21T23:14:41;42.58;;;34.83;;
80272;SDS011;69574;45.328;9.598;2023-08-21T23:17:08;38.25;;;32.92;;
80272;SDS011;69574;45.328;9.598;2023-08-21T23:19:34;37.55;;;32.22;;
80272;SDS011;69574;45.328;9.598;2023-08-21T23:22:00;38.97;;;33.85;;
80272;SDS011;69574;45.328;9.598;2023-08-21T23:24:26;40.15;;;33.45;;
80272;SDS011;69574;45.328;9.598;2023-08-21T23:26:52;37.40;;;32.08;;
80272;SDS011;69574;45.328;9.598;2023-08-21T23:29:17;39.05;;;33.25;;
80272;SDS011;69574;45.328;9.598;2023-08-21T23:31:43;41.88;;;33.92;;
80272;SDS011;69574;45.328;9.598;2023-08-21T23:34:10;38.90;;;33.00;;
80272;SDS011;69574;45.328;9.598;2023-08-21T23:36:37;41.47;;;33.67;;
80272;SDS011;69574;45.328;9.598;2023-08-21T23:39:03;40.47;;;33.70;;
80272;SDS011;69574;45.328;9.598;2023-08-21T23:41:32;41.05;;;33.90;;
80272;SDS011;69574;45.328;9.598;2023-08-21T23:43:58;36.78;;;32.88;;
80272;SDS011;69574;45.328;9.598;2023-08-21T23:46:23;41.47;;;34.38;;
80272;SDS011;69574;45.328;9.598;2023-08-21T23:48:49;36.25;;;32.25;;
80272;SDS011;69574;45.328;9.598;2023-08-21T23:51:17;45.60;;;35.40;;
80272;SDS011;69574;45.328;9.598;2023-08-21T23:53:43;42.75;;;35.58;;
80272;SDS011;69574;45.328;9.598;2023-08-21T23:56:08;42.00;;;35.15;;
80272;SDS011;69574;45.328;9.598;2023-08-21T23:58:36;44.25;;;36.33;;
